createdAt,value
2018-10-16T15:18:04.466Z,59.12
2018-10-16T15:19:04.315Z,59.42
2018-10-16T15:20:04.369Z,59.53
2018-10-16T15:21:04.274Z,60.16
2018-10-16T15:22:04.325Z,60.06
2018-10-16T15:23:04.288Z,60.06
2018-10-16T15:24:04.282Z,60.26
2018-10-16T15:25:04.254Z,60.39
2018-10-16T15:26:04.282Z,60.60
2018-10-16T15:27:04.207Z,61.00
2018-10-16T15:28:04.235Z,60.69
2018-10-16T15:29:04.233Z,60.93
2018-10-16T15:30:04.196Z,61.53
2018-10-16T15:31:04.180Z,61.43
2018-10-16T15:32:04.257Z,61.83
2018-10-16T15:33:04.164Z,61.87
2018-10-16T15:34:04.179Z,62.07
2018-10-16T15:35:04.263Z,62.16
2018-10-16T15:36:04.126Z,62.27
2018-10-16T15:37:04.124Z,62.50
2018-10-16T15:38:04.139Z,62.90
2018-10-16T15:39:04.113Z,62.60
2018-10-16T15:40:04.108Z,62.53
2018-10-16T15:41:04.061Z,62.93
2018-10-16T15:42:04.091Z,62.84
2018-10-16T15:43:04.033Z,63.27
2018-10-16T15:44:04.069Z,63.84
2018-10-16T15:45:04.054Z,63.37
2018-10-16T15:46:04.033Z,63.98
2018-10-16T15:47:04.002Z,64.28
2018-10-16T15:48:04.043Z,63.98
2018-10-16T15:49:04.042Z,64.01
2018-10-16T15:50:04.162Z,63.90
2018-10-16T15:51:03.978Z,64.44
2018-10-16T15:52:03.970Z,65.25
2018-10-16T15:53:03.919Z,65.66
2018-10-16T15:54:03.946Z,66.47
2018-10-16T15:55:03.920Z,65.28
2018-10-16T15:56:03.953Z,65.79
2018-10-16T15:57:03.889Z,65.79
2018-10-16T15:58:03.961Z,65.28
2018-10-16T15:59:03.838Z,66.02
2018-10-16T16:00:03.887Z,65.21
2018-10-16T16:01:03.820Z,65.52
2018-10-16T16:02:03.902Z,66.23
2018-10-16T16:03:03.811Z,66.36
2018-10-16T16:04:03.851Z,66.56
2018-10-16T16:05:03.770Z,66.86
2018-10-16T16:06:03.782Z,67.00
2018-10-16T16:07:03.747Z,67.50
2018-10-16T16:08:03.759Z,67.38
2018-10-16T16:09:03.760Z,67.61
2018-10-16T16:10:03.766Z,68.73
2018-10-16T16:11:14.256Z,68.52
2018-10-16T16:12:03.732Z,68.73
2018-10-16T16:13:03.689Z,68.93
2018-10-16T16:14:03.724Z,68.93
2018-10-16T16:15:03.680Z,69.23
2018-10-16T16:16:03.742Z,69.06
2018-10-16T16:17:03.644Z,69.67
2018-10-16T16:18:03.744Z,69.47
2018-10-16T16:19:03.616Z,69.98
2018-10-16T16:20:03.648Z,70.28
2018-10-16T16:21:03.608Z,69.98
2018-10-16T16:22:03.588Z,69.87
2018-10-16T16:23:03.572Z,69.98
2018-10-16T16:24:03.595Z,70.18
2018-10-16T16:25:03.558Z,70.99
2018-10-16T16:26:03.592Z,70.82
2018-10-16T16:27:03.538Z,70.68
2018-10-16T16:28:03.549Z,71.23
2018-10-16T16:29:03.505Z,71.23
2018-10-16T16:30:03.600Z,70.92
2018-10-16T16:31:03.497Z,70.82
2018-10-16T16:32:03.515Z,70.72
2018-10-16T16:33:03.482Z,71.12
2018-10-16T16:34:03.506Z,71.03
2018-10-16T16:35:03.489Z,70.72
2018-10-16T16:36:03.467Z,71.84
2018-10-16T16:37:03.412Z,71.84
2018-10-16T16:38:03.500Z,71.43
2018-10-16T16:39:03.401Z,71.03
2018-10-16T16:40:03.458Z,71.03
2018-10-16T16:41:03.428Z,71.94
2018-10-16T16:42:03.366Z,71.94
2018-10-16T16:43:03.351Z,72.25
2018-10-16T16:44:03.471Z,72.04
2018-10-16T16:45:03.351Z,72.04
2018-10-16T16:46:03.413Z,71.94
2018-10-16T16:47:03.329Z,71.94
2018-10-16T16:48:03.309Z,71.97
2018-10-16T16:49:03.274Z,72.55
2018-10-16T16:50:03.341Z,72.14
2018-10-16T16:51:03.323Z,72.48
2018-10-16T16:52:03.408Z,72.48
2018-10-16T16:53:03.258Z,72.89
2018-10-16T16:54:03.222Z,72.99
2018-10-16T16:55:03.213Z,73.09
2018-10-16T16:56:03.249Z,73.09
2018-10-16T16:57:03.208Z,72.48
2018-10-16T16:58:03.223Z,73.09
2018-10-16T16:59:04.179Z,72.58
2018-10-16T17:00:03.162Z,72.58
2018-10-16T17:01:03.148Z,72.58
2018-10-16T17:02:03.178Z,72.78
2018-10-16T17:03:03.123Z,72.82
2018-10-16T17:04:03.147Z,72.78
2018-10-16T17:05:03.118Z,73.09
2018-10-16T17:06:03.151Z,72.78
2018-10-16T17:07:03.080Z,72.08
2018-10-16T17:08:03.121Z,73.50
2018-10-16T17:09:03.061Z,73.39
2018-10-16T17:10:03.115Z,73.50
2018-10-16T17:11:03.045Z,74.21
2018-10-16T17:12:03.020Z,74.11
2018-10-16T17:13:03.007Z,74.11
2018-10-16T17:14:03.071Z,74.11
2018-10-16T17:15:02.982Z,74.11
2018-10-16T17:16:02.993Z,73.70
2018-10-16T17:17:02.963Z,73.70
2018-10-16T17:18:02.952Z,73.91
2018-10-16T17:19:02.964Z,73.70
2018-10-16T17:20:02.953Z,73.50
2018-10-16T17:21:02.940Z,73.74
2018-10-16T17:22:02.930Z,74.04
2018-10-16T17:23:02.897Z,73.94
2018-10-16T17:24:02.882Z,73.91
2018-10-16T17:25:02.985Z,73.84
2018-10-16T17:26:03.226Z,73.94
2018-10-16T17:27:02.871Z,74.04
2018-10-16T17:28:03.058Z,73.74
2018-10-16T17:29:03.498Z,74.01
2018-10-16T17:30:02.813Z,74.04
2018-10-16T17:31:02.794Z,73.94
2018-10-16T17:32:02.794Z,74.04
2018-10-16T17:33:02.818Z,73.94
2018-10-16T17:34:02.830Z,73.94
2018-10-16T17:35:02.934Z,73.74
2018-10-16T17:36:02.754Z,73.74
2018-10-16T17:37:02.748Z,73.94
2018-10-16T17:38:02.753Z,74.24
2018-10-16T17:39:02.738Z,73.94
2018-10-16T17:40:02.701Z,73.63
2018-10-16T17:41:02.758Z,74.24
2018-10-16T17:42:02.679Z,74.24
2018-10-16T17:43:02.672Z,74.55
2018-10-16T17:44:02.665Z,74.89
2018-10-16T17:45:02.660Z,74.69
2018-10-16T17:46:02.640Z,73.87
2018-10-16T17:47:02.665Z,73.97
2018-10-16T17:48:02.684Z,74.48
2018-10-16T17:49:02.599Z,74.58
2018-10-16T17:50:02.601Z,74.18
2018-10-16T17:51:02.605Z,74.08
2018-10-16T17:52:02.578Z,73.87
2018-10-16T17:53:02.572Z,74.21
2018-10-16T17:54:02.558Z,74.01
2018-10-16T17:55:03.307Z,74.21
2018-10-16T17:56:02.523Z,74.41
2018-10-16T17:57:02.604Z,74.21
2018-10-16T17:58:02.540Z,74.45
2018-10-16T17:59:02.503Z,73.94
2018-10-16T18:00:02.508Z,74.04
2018-10-16T18:01:02.481Z,74.65
2018-10-16T18:02:02.465Z,73.94
2018-10-16T18:03:02.517Z,74.08
2018-10-16T18:04:02.453Z,73.97
2018-10-16T18:05:02.426Z,74.58
2018-10-16T18:06:02.520Z,74.90
2018-10-16T18:07:02.426Z,74.69
2018-10-16T18:08:02.394Z,74.08
2018-10-16T18:09:02.410Z,74.73
2018-10-16T18:10:02.367Z,75.23
2018-10-16T18:11:02.361Z,75.64
2018-10-16T18:12:02.353Z,76.05
2018-10-16T18:13:02.370Z,76.39
2018-10-16T18:14:02.364Z,76.59
2018-10-16T18:15:02.314Z,76.50
2018-10-16T18:16:02.301Z,77.31
2018-10-16T18:17:02.293Z,77.62
2018-10-16T18:18:02.324Z,77.41
2018-10-16T18:19:02.305Z,77.72
2018-10-16T18:20:02.255Z,77.72
2018-10-16T18:21:02.257Z,78.12
2018-10-16T18:22:02.617Z,78.12
2018-10-16T18:23:02.223Z,77.62
2018-10-16T18:24:02.244Z,78.12
2018-10-16T18:25:02.210Z,77.55
2018-10-16T18:26:02.209Z,77.62
2018-10-16T18:27:02.200Z,77.62
2018-10-16T18:28:02.204Z,77.86
2018-10-16T18:29:02.175Z,77.96
2018-10-16T18:30:02.194Z,77.45
2018-10-16T18:31:02.131Z,77.75
2018-10-16T18:32:02.120Z,77.75
2018-10-16T18:33:02.175Z,77.45
2018-10-16T18:34:02.094Z,77.48
2018-10-16T18:35:02.094Z,77.48
2018-10-16T18:36:02.098Z,77.89
2018-10-16T18:37:02.064Z,78.00
2018-10-16T18:38:02.048Z,78.09
2018-10-16T18:39:02.157Z,77.79
2018-10-16T18:40:02.143Z,78.20
2018-10-16T18:41:02.030Z,78.09
2018-10-16T18:42:02.016Z,78.61
2018-10-16T18:43:02.012Z,78.20
2018-10-16T18:44:01.986Z,78.50
2018-10-16T18:45:02.034Z,78.81
2018-10-16T18:46:01.976Z,78.09
2018-10-16T18:47:01.951Z,78.30
2018-10-16T18:48:01.948Z,79.12
2018-10-16T18:49:01.943Z,78.85
2018-10-16T18:50:01.919Z,78.23
2018-10-16T18:51:02.051Z,78.75
2018-10-16T18:52:01.900Z,78.44
2018-10-16T18:53:01.883Z,79.16
2018-10-16T18:54:01.871Z,78.95
2018-10-16T18:55:01.866Z,78.75
2018-10-16T18:56:01.852Z,78.44
2018-10-16T18:57:01.946Z,78.75
2018-10-16T18:58:01.841Z,79.05
2018-10-16T18:59:01.819Z,79.16
2018-10-16T19:00:01.808Z,79.05
2018-10-16T19:01:01.797Z,79.25
2018-10-16T19:02:01.788Z,79.36
2018-10-16T19:03:01.826Z,79.57
2018-10-16T19:04:01.786Z,79.77
2018-10-16T19:05:01.752Z,79.57
2018-10-16T19:06:01.739Z,78.88
2018-10-16T19:07:01.731Z,78.99
2018-10-16T19:08:01.815Z,79.09
2018-10-16T19:09:01.732Z,78.78
2018-10-16T19:10:01.721Z,78.78
2018-10-16T19:11:01.692Z,79.50
2018-10-16T19:12:01.675Z,79.80
2018-10-16T19:13:01.673Z,79.84
2018-10-16T19:14:01.767Z,79.53
2018-10-16T19:15:01.672Z,79.29
2018-10-16T19:16:01.662Z,79.64
2018-10-16T19:17:01.617Z,79.94
2018-10-16T19:18:01.613Z,80.05
2018-10-16T19:19:01.592Z,80.05
2018-10-16T19:20:01.625Z,79.84
2018-10-16T19:21:01.619Z,79.53
2018-10-16T19:22:02.308Z,79.16
2018-10-16T19:23:01.593Z,79.53
2018-10-16T19:24:01.546Z,80.29
2018-10-16T19:25:01.531Z,80.39
2018-10-16T19:26:01.519Z,79.88
2018-10-16T19:27:01.531Z,80.49
2018-10-16T19:28:01.508Z,80.39
2018-10-16T19:29:01.513Z,80.39
2018-10-16T19:30:01.470Z,80.19
2018-10-16T19:31:01.462Z,80.39
2018-10-16T19:32:01.451Z,80.19
2018-10-16T19:33:01.589Z,80.60
2018-10-16T19:34:01.423Z,80.60
2018-10-16T19:35:01.418Z,80.80
2018-10-16T19:36:01.416Z,81.51
2018-10-16T19:37:01.391Z,82.03
2018-10-16T19:38:01.373Z,81.93
2018-10-16T19:39:01.403Z,82.54
2018-10-16T19:40:01.413Z,82.03
2018-10-16T19:41:01.347Z,82.07
2018-10-16T19:42:01.343Z,82.03
2018-10-16T19:43:01.327Z,81.76
2018-10-16T19:44:01.340Z,81.45
2018-10-16T19:45:01.394Z,81.04
2018-10-16T19:46:01.315Z,81.31
2018-10-16T19:47:01.278Z,81.45
2018-10-16T19:48:01.262Z,81.45
2018-10-16T19:49:01.256Z,81.65
2018-10-16T19:50:01.266Z,81.45
2018-10-16T19:51:01.292Z,81.35
2018-10-16T19:52:01.238Z,81.76
2018-10-16T19:53:01.214Z,81.62
2018-10-16T19:54:01.200Z,80.83
2018-10-16T19:55:01.188Z,81.04
2018-10-16T19:56:01.219Z,80.12
2018-10-16T19:57:01.236Z,81.15
2018-10-16T19:58:01.155Z,81.38
2018-10-16T19:59:01.142Z,81.38
2018-10-16T20:00:01.145Z,81.56
2018-10-16T20:01:01.127Z,80.88
2018-10-16T20:02:01.180Z,80.88
2018-10-16T20:03:01.182Z,81.59
2018-10-16T20:04:01.084Z,81.38
2018-10-16T20:05:01.081Z,81.70
2018-10-16T20:06:01.065Z,81.08
2018-10-16T20:07:01.103Z,81.63
2018-10-16T20:08:01.077Z,81.94
2018-10-16T20:09:01.055Z,82.65
2018-10-16T20:10:01.023Z,82.55
2018-10-16T20:11:01.008Z,82.35
2018-10-16T20:12:01.046Z,81.79
2018-10-16T20:13:00.986Z,81.18
2018-10-16T20:14:01.028Z,81.29
2018-10-16T20:15:00.966Z,81.01
2018-10-16T20:16:00.948Z,81.43
2018-10-16T20:17:00.946Z,81.32
2018-10-16T20:18:00.950Z,80.81
2018-10-16T20:19:00.916Z,80.71
2018-10-16T20:20:00.926Z,81.46
2018-10-16T20:21:00.898Z,82.39
2018-10-16T20:22:00.883Z,82.39
2018-10-16T20:23:00.876Z,82.28
2018-10-16T20:24:00.902Z,82.08
2018-10-16T20:25:00.893Z,82.28
2018-10-16T20:26:00.855Z,82.28
2018-10-16T20:27:00.823Z,81.87
2018-10-16T20:28:00.818Z,81.71
2018-10-16T20:29:00.812Z,81.57
2018-10-16T20:30:00.793Z,81.60
2018-10-16T20:31:00.796Z,82.28
2018-10-16T20:32:00.787Z,82.12
2018-10-16T20:33:00.759Z,82.32
2018-10-16T20:34:00.828Z,82.22
2018-10-16T20:35:00.735Z,82.42
2018-10-16T20:36:43.357Z,83.04
2018-10-16T20:37:01.978Z,83.28
2018-10-16T20:45:52.471Z,82.46
